Time;durP1;ratioP1;P1;durP2;ratioP2;P2;SDS_P1;SDS_P2;PMS_P1;PMS_P2;Temp;Humidity;BMP_temperature;BMP_pressure;BME280_temperature;BME280_humidity;BME280_pressure;Samples;Min_cycle;Max_cycle;Signal;HPM_P1;HPM_P2
2021/07/05 00:02:18;;;;;;;6.22;4.80;;;;;;;;;;143745;600;46012;-56
2021/07/05 00:04:45;;;;;;;6.05;4.85;;;;;;;;;;143741;635;47020;-55
2021/07/05 00:07:12;;;;;;;7.75;5.20;;;;;;;;;;143737;566;47919;-56
2021/07/05 00:09:40;;;;;;;7.87;5.95;;;;;;;;;;143739;664;46010;-55
2021/07/05 00:12:09;;;;;;;7.90;5.10;;;;;;;;;;143746;590;45020;-55
2021/07/05 00:14:36;;;;;;;6.25;5.47;;;;;;;;;;143742;603;46022;-55
2021/07/05 00:17:05;;;;;;;9.13;6.22;;;;;;;;;;143741;572;46020;-56
2021/07/05 00:19:32;;;;;;;15.60;6.30;;;;;;;;;;143742;599;46010;-56
2021/07/05 00:21:59;;;;;;;13.50;7.05;;;;;;;;;;143743;596;45021;-56
2021/07/05 00:24:27;;;;;;;13.55;6.85;;;;;;;;;;143742;684;46022;-55
2021/07/05 00:26:54;;;;;;;10.07;6.50;;;;;;;;;;143740;690;46020;-55
2021/07/05 00:29:21;;;;;;;9.18;6.60;;;;;;;;;;143740;571;46010;-56
2021/07/05 00:31:48;;;;;;;9.02;5.72;;;;;;;;;;143746;569;45020;-55
2021/07/05 00:34:15;;;;;;;9.38;6.55;;;;;;;;;;143743;592;46020;-55
2021/07/05 00:36:42;;;;;;;12.57;6.30;;;;;;;;;;143741;598;46021;-55
2021/07/05 00:39:09;;;;;;;9.23;5.75;;;;;;;;;;143741;581;46010;-56
2021/07/05 00:41:36;;;;;;;7.12;5.40;;;;;;;;;;143747;602;45020;-55
2021/07/05 00:44:03;;;;;;;8.00;5.15;;;;;;;;;;143742;601;46022;-55
2021/07/05 00:46:30;;;;;;;11.73;6.45;;;;;;;;;;143746;601;46022;-55
2021/07/05 00:48:57;;;;;;;18.73;6.80;;;;;;;;;;143741;585;46010;-55
2021/07/05 00:51:24;;;;;;;16.45;6.57;;;;;;;;;;143745;594;45023;-56
2021/07/05 00:53:54;;;;;;;11.12;5.40;;;;;;;;;;143750;610;46020;-56
2021/07/05 00:56:22;;;;;;;7.80;5.57;;;;;;;;;;143740;616;46020;-56
2021/07/05 00:58:50;;;;;;;16.08;6.15;;;;;;;;;;143739;569;46011;-56
2021/07/05 01:01:17;;;;;;;8.85;5.62;;;;;;;;;;143745;612;45020;-56
2021/07/05 01:03:44;;;;;;;6.93;5.12;;;;;;;;;;143741;617;46022;-55
2021/07/05 01:06:11;;;;;;;8.65;5.97;;;;;;;;;;143738;768;46919;-55
2021/07/05 01:08:39;;;;;;;7.45;5.95;;;;;;;;;;143742;663;46010;-55
2021/07/05 01:11:06;;;;;;;10.27;5.57;;;;;;;;;;143746;634;45020;-56
2021/07/05 01:13:33;;;;;;;8.82;5.37;;;;;;;;;;143742;597;46022;-55
2021/07/05 01:16:02;;;;;;;10.80;6.22;;;;;;;;;;143740;600;46020;-56
2021/07/05 01:18:29;;;;;;;7.35;5.60;;;;;;;;;;143740;623;46010;-55
2021/07/05 01:21:00;;;;;;;7.50;5.80;;;;;;;;;;143746;589;45021;-56
2021/07/05 01:23:28;;;;;;;6.32;5.00;;;;;;;;;;143741;576;46023;-55
2021/07/05 01:25:56;;;;;;;8.20;5.43;;;;;;;;;;143741;565;46020;-55
2021/07/05 01:28:24;;;;;;;7.37;5.72;;;;;;;;;;143741;690;46010;-55
2021/07/05 01:30:51;;;;;;;9.85;5.62;;;;;;;;;;143745;586;45020;-56
2021/07/05 01:33:18;;;;;;;8.23;6.43;;;;;;;;;;143744;569;46020;-55
2021/07/05 01:35:45;;;;;;;8.02;5.60;;;;;;;;;;143741;573;46020;-55
2021/07/05 01:38:17;;;;;;;9.65;5.57;;;;;;;;;;143742;699;46020;-56
2021/07/05 01:40:44;;;;;;;7.20;5.82;;;;;;;;;;143738;605;47020;-55
2021/07/05 01:43:12;;;;;;;10.43;5.60;;;;;;;;;;143740;746;46022;-55
2021/07/05 01:45:39;;;;;;;9.65;5.55;;;;;;;;;;143740;672;46020;-56
2021/07/05 01:48:06;;;;;;;10.30;6.78;;;;;;;;;;143740;586;46010;-56
2021/07/05 01:50:33;;;;;;;8.73;6.28;;;;;;;;;;143744;566;45021;-55
2021/07/05 01:53:00;;;;;;;6.15;5.18;;;;;;;;;;143743;575;46020;-55
2021/07/05 01:55:33;;;;;;;12.77;6.55;;;;;;;;;;143740;889;46020;-55
2021/07/05 01:58:03;;;;;;;11.57;5.75;;;;;;;;;;143740;682;46011;-55
2021/07/05 02:00:32;;;;;;;5.85;5.18;;;;;;;;;;143745;576;45021;-55
2021/07/05 02:03:00;;;;;;;6.82;5.60;;;;;;;;;;143743;591;46020;-55
2021/07/05 02:05:27;;;;;;;10.60;5.90;;;;;;;;;;143738;755;46021;-55
2021/07/05 02:07:55;;;;;;;7.28;5.18;;;;;;;;;;143741;598;46010;-55
2021/07/05 02:10:29;;;;;;;8.88;5.72;;;;;;;;;;143747;566;46020;-55
2021/07/05 02:12:58;;;;;;;7.37;5.10;;;;;;;;;;143742;577;46022;-55
2021/07/05 02:15:25;;;;;;;6.32;5.37;;;;;;;;;;143738;576;47010;-56
2021/07/05 02:17:53;;;;;;;7.53;5.15;;;;;;;;;;143741;787;46010;-55
2021/07/05 02:20:23;;;;;;;10.43;5.43;;;;;;;;;;143747;595;46020;-55
2021/07/05 02:22:51;;;;;;;6.78;5.60;;;;;;;;;;143744;581;46020;-55
2021/07/05 02:25:21;;;;;;;8.65;5.22;;;;;;;;;;143744;569;45919;-55
2021/07/05 02:27:48;;;;;;;7.93;5.28;;;;;;;;;;143741;583;46011;-55
2021/07/05 02:30:19;;;;;;;9.70;5.78;;;;;;;;;;143747;850;45020;-55
2021/07/05 02:32:46;;;;;;;13.43;5.78;;;;;;;;;;143743;574;47022;-55
2021/07/05 02:35:15;;;;;;;8.23;5.93;;;;;;;;;;143740;627;46919;-55
2021/07/05 02:37:44;;;;;;;11.77;5.65;;;;;;;;;;143741;569;46010;-55
2021/07/05 02:40:13;;;;;;;12.80;6.75;;;;;;;;;;143746;620;45020;-56
2021/07/05 02:42:41;;;;;;;7.72;5.75;;;;;;;;;;143745;587;46021;-56
2021/07/05 02:45:14;;;;;;;9.30;5.85;;;;;;;;;;143740;741;46020;-55
2021/07/05 02:47:40;;;;;;;10.65;6.10;;;;;;;;;;143741;717;46020;-55
2021/07/05 02:50:09;;;;;;;18.20;6.50;;;;;;;;;;143747;590;45021;-55
2021/07/05 02:52:37;;;;;;;9.25;5.80;;;;;;;;;;143742;625;46023;-55
2021/07/05 02:55:07;;;;;;;9.23;5.60;;;;;;;;;;143741;842;46020;-56
2021/07/05 02:57:34;;;;;;;12.18;6.05;;;;;;;;;;143741;631;46010;-55
2021/07/05 03:00:25;;;;;;;8.52;5.97;;;;;;;;;;143739;681;46012;-58
2021/07/05 03:02:52;;;;;;;9.65;5.70;;;;;;;;;;143745;634;46020;-55
2021/07/05 03:05:22;;;;;;;7.68;5.90;;;;;;;;;;143740;648;46021;-55
2021/07/05 03:07:49;;;;;;;7.00;5.82;;;;;;;;;;143742;597;46010;-55
2021/07/05 03:10:19;;;;;;;11.27;6.62;;;;;;;;;;143746;608;46020;-56
2021/07/05 03:12:46;;;;;;;10.25;6.78;;;;;;;;;;143742;576;46022;-58
2021/07/05 03:15:14;;;;;;;8.75;6.00;;;;;;;;;;143743;857;46020;-56
2021/07/05 03:17:42;;;;;;;12.23;6.10;;;;;;;;;;143741;780;46010;-56
2021/07/05 03:20:13;;;;;;;9.60;5.70;;;;;;;;;;143746;596;45033;-57
2021/07/05 03:22:41;;;;;;;9.20;5.78;;;;;;;;;;143744;588;46020;-55
2021/07/05 03:25:10;;;;;;;9.63;6.15;;;;;;;;;;143741;638;46919;-56
2021/07/05 03:27:37;;;;;;;15.15;6.47;;;;;;;;;;143742;566;46011;-56
2021/07/05 03:30:06;;;;;;;13.13;5.87;;;;;;;;;;143747;717;45020;-56
2021/07/05 03:32:34;;;;;;;10.80;6.07;;;;;;;;;;143744;563;46022;-56
2021/07/05 03:35:01;;;;;;;8.35;5.20;;;;;;;;;;143741;564;46021;-56
2021/07/05 03:37:28;;;;;;;14.70;6.57;;;;;;;;;;143741;616;46912;-55
2021/07/05 03:39:56;;;;;;;10.43;6.15;;;;;;;;;;143743;603;46020;-56
2021/07/05 03:42:23;;;;;;;10.05;6.70;;;;;;;;;;143743;592;46022;-55
2021/07/05 03:44:50;;;;;;;14.45;6.85;;;;;;;;;;143740;564;46020;-56
2021/07/05 03:47:17;;;;;;;14.50;6.95;;;;;;;;;;143742;838;46010;-56
2021/07/05 03:49:44;;;;;;;10.60;6.32;;;;;;;;;;143747;569;45021;-56
2021/07/05 03:52:11;;;;;;;16.20;6.35;;;;;;;;;;143743;630;46023;-56
2021/07/05 03:54:39;;;;;;;9.95;5.90;;;;;;;;;;143742;577;46020;-56
2021/07/05 03:57:06;;;;;;;9.73;5.60;;;;;;;;;;143741;581;46913;-56
2021/07/05 03:59:33;;;;;;;9.60;5.75;;;;;;;;;;143749;649;45021;-56
2021/07/05 04:02:00;;;;;;;13.57;5.80;;;;;;;;;;143744;610;46020;-56
2021/07/05 04:04:27;;;;;;;15.65;6.00;;;;;;;;;;143741;564;46021;-58
2021/07/05 04:06:54;;;;;;;15.10;6.57;;;;;;;;;;143745;759;46010;-56
2021/07/05 04:09:22;;;;;;;13.00;6.15;;;;;;;;;;143746;585;46020;-56
2021/07/05 04:11:49;;;;;;;15.07;6.72;;;;;;;;;;143742;706;47021;-57
2021/07/05 04:14:16;;;;;;;35.00;8.98;;;;;;;;;;143739;665;46021;-56
2021/07/05 04:16:43;;;;;;;45.08;8.95;;;;;;;;;;143742;609;46010;-56
2021/07/05 04:19:10;;;;;;;42.92;9.85;;;;;;;;;;143744;607;46020;-56
2021/07/05 04:21:37;;;;;;;39.97;9.32;;;;;;;;;;143741;598;47023;-58
2021/07/05 04:24:04;;;;;;;43.30;7.90;;;;;;;;;;143743;584;46020;-57
2021/07/05 04:26:32;;;;;;;29.65;7.40;;;;;;;;;;143740;567;46011;-58
2021/07/05 04:28:59;;;;;;;52.95;10.13;;;;;;;;;;143746;610;46020;-58
2021/07/05 04:31:26;;;;;;;18.02;7.12;;;;;;;;;;143743;569;47020;-58
2021/07/05 04:33:53;;;;;;;20.12;7.32;;;;;;;;;;143741;583;46021;-58
2021/07/05 04:36:20;;;;;;;23.33;6.85;;;;;;;;;;143743;692;46010;-58
2021/07/05 04:38:47;;;;;;;28.52;8.35;;;;;;;;;;143748;627;45020;-58
2021/07/05 04:41:14;;;;;;;21.65;7.43;;;;;;;;;;143743;564;46021;-58
2021/07/05 04:43:41;;;;;;;19.73;8.13;;;;;;;;;;143744;564;46020;-58
2021/07/05 04:46:08;;;;;;;21.15;7.68;;;;;;;;;;143741;700;46010;-60
2021/07/05 04:48:36;;;;;;;18.87;7.70;;;;;;;;;;143746;567;46010;-58
2021/07/05 04:51:05;;;;;;;28.80;9.13;;;;;;;;;;143744;574;46023;-59
2021/07/05 04:53:32;;;;;;;16.12;7.45;;;;;;;;;;143742;585;45919;-58
2021/07/05 04:56:00;;;;;;;38.42;10.60;;;;;;;;;;143741;577;46010;-59
2021/07/05 04:58:27;;;;;;;23.15;9.07;;;;;;;;;;143746;612;45025;-59
2021/07/05 05:00:54;;;;;;;28.35;10.52;;;;;;;;;;143741;629;46022;-59
2021/07/05 05:03:21;;;;;;;26.45;10.35;;;;;;;;;;143742;633;46021;-59
2021/07/05 05:05:48;;;;;;;23.40;9.85;;;;;;;;;;143741;585;46010;-60
2021/07/05 05:08:16;;;;;;;27.77;10.93;;;;;;;;;;143747;569;45020;-58
2021/07/05 05:10:43;;;;;;;37.55;14.43;;;;;;;;;;143742;585;46916;-59
2021/07/05 05:13:11;;;;;;;55.55;21.08;;;;;;;;;;143741;588;46919;-59
2021/07/05 05:15:38;;;;;;;39.00;14.50;;;;;;;;;;143742;586;46010;-59
2021/07/05 05:18:06;;;;;;;44.95;15.45;;;;;;;;;;143744;586;45021;-59
2021/07/05 05:20:33;;;;;;;52.83;17.00;;;;;;;;;;143743;566;46023;-59
2021/07/05 05:23:01;;;;;;;44.65;15.52;;;;;;;;;;143741;619;46918;-60
2021/07/05 05:25:28;;;;;;;51.20;16.55;;;;;;;;;;143740;571;46021;-59
2021/07/05 05:27:55;;;;;;;41.80;15.52;;;;;;;;;;143747;606;45021;-59
2021/07/05 05:30:24;;;;;;;55.78;18.48;;;;;;;;;;143744;590;46022;-60
2021/07/05 05:32:52;;;;;;;58.60;21.85;;;;;;;;;;143741;619;46020;-58
2021/07/05 05:35:21;;;;;;;59.58;22.55;;;;;;;;;;143744;573;46020;-57
2021/07/05 05:37:50;;;;;;;59.42;28.42;;;;;;;;;;143743;628;46010;-58
2021/07/05 05:40:17;;;;;;;42.88;22.48;;;;;;;;;;143745;669;46012;-60
2021/07/05 05:42:45;;;;;;;44.67;21.92;;;;;;;;;;143740;598;46918;-58
2021/07/05 05:45:12;;;;;;;29.25;17.10;;;;;;;;;;143743;660;46010;-59
2021/07/05 05:47:39;;;;;;;20.83;11.60;;;;;;;;;;143743;572;46010;-58
2021/07/05 05:50:07;;;;;;;39.85;17.48;;;;;;;;;;143743;566;46021;-58
2021/07/05 05:52:35;;;;;;;33.88;16.83;;;;;;;;;;143741;577;46022;-59
2021/07/05 05:55:03;;;;;;;36.75;15.40;;;;;;;;;;143742;592;46010;-58
2021/07/05 05:57:30;;;;;;;25.55;13.77;;;;;;;;;;143745;583;46023;-59
2021/07/05 05:59:59;;;;;;;24.12;11.93;;;;;;;;;;143743;589;46020;-59
2021/07/05 06:02:27;;;;;;;31.25;14.20;;;;;;;;;;143743;617;46022;-59
2021/07/05 06:04:54;;;;;;;32.97;14.63;;;;;;;;;;143742;645;46010;-59
2021/07/05 06:07:22;;;;;;;28.12;12.82;;;;;;;;;;143746;564;45022;-59
2021/07/05 06:09:49;;;;;;;48.13;16.33;;;;;;;;;;143745;722;46019;-59
2021/07/05 06:12:18;;;;;;;26.30;15.35;;;;;;;;;;143742;569;46023;-59
2021/07/05 06:14:45;;;;;;;25.73;12.80;;;;;;;;;;143743;602;46010;-59
2021/07/05 06:17:13;;;;;;;35.22;14.85;;;;;;;;;;143746;565;46022;-59
2021/07/05 06:19:40;;;;;;;24.83;13.18;;;;;;;;;;143744;586;46019;-59
2021/07/05 06:22:18;;;;;;;25.90;12.95;;;;;;;;;;143740;631;46919;-59
2021/07/05 06:24:47;;;;;;;29.58;13.02;;;;;;;;;;143742;630;46010;-59
2021/07/05 06:27:15;;;;;;;24.30;11.48;;;;;;;;;;143748;575;46023;-59
2021/07/05 06:29:42;;;;;;;25.77;10.30;;;;;;;;;;143743;666;46018;-59
2021/07/05 06:32:09;;;;;;;24.15;10.93;;;;;;;;;;143742;586;46022;-59
2021/07/05 06:34:36;;;;;;;24.35;10.05;;;;;;;;;;143743;585;46011;-59
2021/07/05 06:37:04;;;;;;;22.08;8.93;;;;;;;;;;143747;583;45022;-59
2021/07/05 06:39:31;;;;;;;27.40;9.30;;;;;;;;;;143740;572;47018;-58
2021/07/05 06:41:58;;;;;;;21.23;8.50;;;;;;;;;;143740;585;46023;-59
2021/07/05 06:44:25;;;;;;;23.42;8.65;;;;;;;;;;143742;701;46010;-59
2021/07/05 06:46:52;;;;;;;15.65;7.28;;;;;;;;;;143745;586;46022;-59
2021/07/05 06:49:20;;;;;;;18.50;7.22;;;;;;;;;;143741;578;46020;-58
2021/07/05 06:51:49;;;;;;;15.90;6.82;;;;;;;;;;143743;569;45921;-59
2021/07/05 06:54:16;;;;;;;18.00;8.05;;;;;;;;;;143740;703;46010;-59
2021/07/05 06:56:43;;;;;;;17.30;7.60;;;;;;;;;;143746;575;46023;-58
2021/07/05 06:59:10;;;;;;;14.85;8.20;;;;;;;;;;143741;603;46020;-58
2021/07/05 07:01:38;;;;;;;19.98;8.00;;;;;;;;;;143741;582;46022;-58
2021/07/05 07:04:05;;;;;;;21.12;8.15;;;;;;;;;;143741;587;46010;-58
2021/07/05 07:06:32;;;;;;;15.00;7.60;;;;;;;;;;143746;591;46022;-57
2021/07/05 07:08:59;;;;;;;21.00;7.57;;;;;;;;;;143742;656;46012;-59
2021/07/05 07:11:26;;;;;;;21.48;7.78;;;;;;;;;;143739;581;46921;-59
2021/07/05 07:13:54;;;;;;;19.17;7.82;;;;;;;;;;143739;596;46010;-59
2021/07/05 07:16:22;;;;;;;14.38;7.70;;;;;;;;;;143745;569;45022;-57
2021/07/05 07:21:50;;;;;;;26.37;8.32;;;;;;;;;;143741;620;45919;-57
2021/07/05 07:24:19;;;;;;;22.65;8.65;;;;;;;;;;143740;579;46010;-58
2021/07/05 07:26:46;;;;;;;19.58;8.40;;;;;;;;;;143743;591;45023;-58
2021/07/05 07:29:13;;;;;;;15.35;8.25;;;;;;;;;;143741;589;46020;-58
2021/07/05 07:31:40;;;;;;;22.67;8.98;;;;;;;;;;143741;602;46022;-57
2021/07/05 07:34:08;;;;;;;26.35;9.10;;;;;;;;;;143739;565;46911;-57
2021/07/05 07:36:35;;;;;;;23.38;8.23;;;;;;;;;;143745;564;45022;-58
2021/07/05 07:39:06;;;;;;;18.45;8.38;;;;;;;;;;143741;578;46020;-58
2021/07/05 07:41:34;;;;;;;17.37;8.18;;;;;;;;;;143739;587;46023;-57
2021/07/05 07:44:03;;;;;;;14.57;8.35;;;;;;;;;;143741;577;46010;-57
2021/07/05 07:46:30;;;;;;;18.65;8.15;;;;;;;;;;143742;564;46022;-57
2021/07/05 07:48:58;;;;;;;24.87;8.95;;;;;;;;;;143737;598;47014;-57
2021/07/05 07:51:25;;;;;;;19.02;8.90;;;;;;;;;;143737;570;46920;-57
2021/07/05 07:53:52;;;;;;;21.70;10.43;;;;;;;;;;143739;604;46010;-56
2021/07/05 07:56:19;;;;;;;17.87;9.73;;;;;;;;;;143744;636;45023;-57
2021/07/05 07:58:46;;;;;;;26.87;11.57;;;;;;;;;;143735;580;50010;-57
2021/07/05 08:01:14;;;;;;;23.50;11.05;;;;;;;;;;143740;571;46022;-57
2021/07/05 08:03:41;;;;;;;20.50;10.90;;;;;;;;;;143742;566;46010;-57
2021/07/05 08:06:08;;;;;;;25.12;10.57;;;;;;;;;;143741;674;46022;-56
2021/07/05 08:08:35;;;;;;;20.77;10.00;;;;;;;;;;143742;573;46018;-56
2021/07/05 08:11:02;;;;;;;19.92;10.60;;;;;;;;;;143739;578;46023;-56
2021/07/05 08:13:29;;;;;;;21.37;10.02;;;;;;;;;;143740;606;46010;-55
2021/07/05 08:15:56;;;;;;;16.23;8.95;;;;;;;;;;143744;579;46022;-56
2021/07/05 08:18:23;;;;;;;17.25;9.05;;;;;;;;;;143742;591;46019;-56
2021/07/05 08:20:50;;;;;;;23.27;9.52;;;;;;;;;;143739;662;47018;-56
2021/07/05 08:23:18;;;;;;;14.38;8.52;;;;;;;;;;143740;665;46018;-57
2021/07/05 08:25:45;;;;;;;20.73;9.15;;;;;;;;;;143743;609;46023;-57
2021/07/05 08:28:12;;;;;;;21.00;8.63;;;;;;;;;;143741;599;46020;-57
2021/07/05 08:30:39;;;;;;;16.62;7.47;;;;;;;;;;143738;575;46022;-57
2021/07/05 08:33:07;;;;;;;17.95;7.20;;;;;;;;;;143740;591;46010;-57
2021/07/05 08:35:34;;;;;;;10.02;6.40;;;;;;;;;;143742;585;46022;-57
2021/07/05 08:38:01;;;;;;;10.73;6.97;;;;;;;;;;143741;607;46020;-58
2021/07/05 08:40:28;;;;;;;14.18;7.47;;;;;;;;;;143740;586;46023;-58
2021/07/05 08:42:57;;;;;;;11.65;7.85;;;;;;;;;;143741;615;46010;-58
2021/07/05 08:45:24;;;;;;;12.82;6.97;;;;;;;;;;143746;563;45022;-58
2021/07/05 08:47:56;;;;;;;13.13;6.47;;;;;;;;;;143740;580;48021;-59
2021/07/05 08:50:25;;;;;;;11.25;6.47;;;;;;;;;;143739;587;46022;-58
2021/07/05 08:52:52;;;;;;;11.05;6.30;;;;;;;;;;143740;583;46010;-57
2021/07/05 08:55:22;;;;;;;16.95;8.00;;;;;;;;;;143744;578;45023;-57
2021/07/05 08:57:49;;;;;;;12.73;7.80;;;;;;;;;;143741;581;46021;-57
2021/07/05 09:00:27;;;;;;;14.27;6.37;;;;;;;;;;143737;638;46038;-57
2021/07/05 09:02:56;;;;;;;10.25;7.00;;;;;;;;;;143741;601;46012;-57
2021/07/05 09:05:24;;;;;;;13.40;6.05;;;;;;;;;;143739;645;49022;-57
2021/07/05 09:08:19;;;;;;;14.82;6.37;;;;;;;;;;143742;563;46020;-57
2021/07/05 09:10:55;;;;;;;13.95;6.70;;;;;;;;;;143736;663;48012;-57
2021/07/05 09:13:25;;;;;;;11.32;6.35;;;;;;;;;;143742;572;46012;-57
2021/07/05 09:15:59;;;;;;;9.63;5.75;;;;;;;;;;143744;605;45022;-57
2021/07/05 09:18:44;;;;;;;15.52;6.15;;;;;;;;;;143742;587;46014;-57
2021/07/05 09:21:31;;;;;;;18.33;7.22;;;;;;;;;;143739;574;46022;-58
2021/07/05 09:24:07;;;;;;;11.23;5.82;;;;;;;;;;143740;570;46015;-57
2021/07/05 09:26:42;;;;;;;18.83;6.85;;;;;;;;;;143741;613;49023;-57
2021/07/05 09:29:22;;;;;;;14.48;6.78;;;;;;;;;;143740;593;46020;-57
2021/07/05 09:31:54;;;;;;;16.73;7.65;;;;;;;;;;143738;592;46023;-58
2021/07/05 09:34:27;;;;;;;10.13;6.50;;;;;;;;;;143741;567;46018;-59
2021/07/05 09:37:08;;;;;;;13.80;6.12;;;;;;;;;;143746;586;45022;-60
2021/07/05 09:39:36;;;;;;;15.57;6.95;;;;;;;;;;143741;619;46019;-60
2021/07/05 09:42:09;;;;;;;9.20;6.32;;;;;;;;;;143741;572;46022;-58
2021/07/05 09:44:46;;;;;;;20.73;7.50;;;;;;;;;;143741;563;46012;-58
2021/07/05 09:47:17;;;;;;;15.35;8.38;;;;;;;;;;143742;634;47010;-58
2021/07/05 09:49:46;;;;;;;14.73;7.50;;;;;;;;;;143741;584;46021;-59
2021/07/05 09:52:31;;;;;;;15.68;7.10;;;;;;;;;;143739;567;46020;-59
2021/07/05 09:55:00;;;;;;;10.07;5.90;;;;;;;;;;143739;569;46010;-59
2021/07/05 09:57:47;;;;;;;9.52;5.85;;;;;;;;;;143744;613;45026;-59
2021/07/05 10:00:20;;;;;;;12.75;6.20;;;;;;;;;;143740;671;46039;-59
2021/07/05 10:03:01;;;;;;;14.63;7.28;;;;;;;;;;143739;652;46021;-58
2021/07/05 10:05:36;;;;;;;11.63;6.53;;;;;;;;;;143740;578;46010;-59
2021/07/05 10:08:06;;;;;;;11.30;7.18;;;;;;;;;;143746;682;45020;-58
2021/07/05 10:10:34;;;;;;;10.90;6.95;;;;;;;;;;143742;595;46021;-58
2021/07/05 10:13:07;;;;;;;9.52;6.90;;;;;;;;;;143741;566;46020;-61
2021/07/05 10:15:35;;;;;;;18.92;7.50;;;;;;;;;;143739;581;46020;-59
2021/07/05 10:18:02;;;;;;;10.13;5.85;;;;;;;;;;143743;566;46035;-59
2021/07/05 10:20:39;;;;;;;13.38;6.20;;;;;;;;;;143734;627;49020;-60
2021/07/05 10:23:11;;;;;;;10.75;6.55;;;;;;;;;;143740;586;46021;-60
2021/07/05 10:25:47;;;;;;;6.53;5.10;;;;;;;;;;143741;682;46010;-60
2021/07/05 10:28:16;;;;;;;9.02;5.15;;;;;;;;;;143745;609;47020;-60
2021/07/05 10:30:44;;;;;;;8.57;5.50;;;;;;;;;;143735;587;50027;-60
2021/07/05 10:33:12;;;;;;;10.07;5.85;;;;;;;;;;143739;573;46021;-59
2021/07/05 10:35:47;;;;;;;10.27;5.93;;;;;;;;;;143739;659;46911;-59
2021/07/05 10:38:36;;;;;;;8.32;5.53;;;;;;;;;;143744;580;46020;-59
2021/07/05 10:41:14;;;;;;;14.32;8.30;;;;;;;;;;143741;589;46023;-60
2021/07/05 10:43:53;;;;;;;11.75;7.03;;;;;;;;;;143739;626;46020;-59
2021/07/05 10:46:57;;;;;;;7.72;5.32;;;;;;;;;;143743;564;46021;-58
2021/07/05 10:49:50;;;;;;;9.65;5.60;;;;;;;;;;143747;594;45020;-59
2021/07/05 10:52:19;;;;;;;7.87;5.28;;;;;;;;;;143743;582;46020;-60
2021/07/05 10:54:56;;;;;;;5.68;5.07;;;;;;;;;;143736;605;48010;-60
2021/07/05 10:58:03;;;;;;;7.03;5.40;;;;;;;;;;143740;657;46010;-59
2021/07/05 11:00:43;;;;;;;7.80;5.85;;;;;;;;;;143746;591;46020;-58
2021/07/05 11:03:10;;;;;;;8.30;5.32;;;;;;;;;;143742;628;46021;-59
2021/07/05 11:05:48;;;;;;;8.93;5.50;;;;;;;;;;143740;579;46020;-59
2021/07/05 11:08:35;;;;;;;6.45;5.10;;;;;;;;;;143741;574;46011;-59
2021/07/05 11:11:21;;;;;;;8.00;5.15;;;;;;;;;;143744;591;45024;-59
2021/07/05 11:13:48;;;;;;;8.32;6.12;;;;;;;;;;143743;586;46022;-59
2021/07/05 11:16:15;;;;;;;8.07;5.20;;;;;;;;;;143739;569;46021;-58
2021/07/05 11:19:08;;;;;;;14.05;6.25;;;;;;;;;;143738;595;46010;-58
2021/07/05 11:22:11;;;;;;;13.07;6.32;;;;;;;;;;143745;657;45020;-58
2021/07/05 11:24:50;;;;;;;11.70;5.25;;;;;;;;;;143740;585;46025;-58
2021/07/05 11:27:39;;;;;;;8.60;5.00;;;;;;;;;;143739;660;46020;-58
2021/07/05 11:30:15;;;;;;;8.95;5.28;;;;;;;;;;143741;575;46010;-58
2021/07/05 11:32:47;;;;;;;14.30;5.93;;;;;;;;;;143745;593;45021;-58
2021/07/05 11:35:39;;;;;;;11.32;5.57;;;;;;;;;;143741;618;46022;-59
2021/07/05 11:38:29;;;;;;;6.65;4.93;;;;;;;;;;143740;574;46020;-60
2021/07/05 11:41:21;;;;;;;7.68;5.05;;;;;;;;;;143741;569;46010;-60
2021/07/05 11:44:12;;;;;;;7.10;5.57;;;;;;;;;;143745;624;46020;-60
2021/07/05 11:46:49;;;;;;;6.65;4.90;;;;;;;;;;143742;588;46022;-59
2021/07/05 11:49:24;;;;;;;7.15;5.10;;;;;;;;;;143739;679;46020;-60
2021/07/05 11:51:57;;;;;;;10.10;4.97;;;;;;;;;;143740;607;46010;-60
2021/07/05 11:54:34;;;;;;;;;;;;;;;;;;143750;965;45021;-61
2021/07/05 11:57:06;;;;;;;8.80;4.95;;;;;;;;;;143748;567;46020;-61
2021/07/05 11:59:37;;;;;;;8.53;5.03;;;;;;;;;;143739;724;46020;-61
2021/07/05 12:02:13;;;;;;;6.20;4.40;;;;;;;;;;143742;577;46010;-60
2021/07/05 12:04:45;;;;;;;6.78;4.90;;;;;;;;;;143744;565;46020;-61
2021/07/05 12:07:14;;;;;;;5.67;5.03;;;;;;;;;;143742;581;46021;-59
2021/07/05 12:09:42;;;;;;;7.32;4.30;;;;;;;;;;143740;582;46020;-57
2021/07/05 12:12:15;;;;;;;5.72;4.30;;;;;;;;;;143742;566;46010;-57
2021/07/05 12:14:43;;;;;;;8.65;4.85;;;;;;;;;;143746;599;45018;-59
2021/07/05 12:17:12;;;;;;;5.93;4.65;;;;;;;;;;143724;598;47020;-60
2021/07/05 12:19:42;;;;;;;6.68;4.50;;;;;;;;;;143725;582;46020;-60
2021/07/05 12:22:15;;;;;;;6.15;4.53;;;;;;;;;;143725;617;46020;-61
2021/07/05 12:24:51;;;;;;;7.72;4.30;;;;;;;;;;143730;584;46012;-59
2021/07/05 12:27:20;;;;;;;8.10;5.15;;;;;;;;;;143725;616;46022;-60
2021/07/05 12:29:56;;;;;;;6.97;4.85;;;;;;;;;;143725;644;46020;-60
2021/07/05 12:32:32;;;;;;;6.40;4.62;;;;;;;;;;143726;608;46010;-59
2021/07/05 12:35:17;;;;;;;6.43;4.37;;;;;;;;;;143729;572;46020;-59
2021/07/05 12:37:53;;;;;;;6.55;4.90;;;;;;;;;;143728;577;46021;-59
2021/07/05 12:40:25;;;;;;;5.65;4.12;;;;;;;;;;143726;569;46020;-59
2021/07/05 12:43:17;;;;;;;6.85;5.12;;;;;;;;;;143726;653;46010;-59
2021/07/05 12:45:55;;;;;;;9.65;4.60;;;;;;;;;;143729;629;46013;-59
2021/07/05 12:48:24;;;;;;;12.00;6.68;;;;;;;;;;143727;580;46043;-58
2021/07/05 12:51:03;;;;;;;8.18;5.15;;;;;;;;;;143723;674;46020;-59
2021/07/05 12:53:56;;;;;;;6.65;4.97;;;;;;;;;;143729;574;46010;-59
2021/07/05 12:56:30;;;;;;;6.10;4.70;;;;;;;;;;143730;587;46012;-59
2021/07/05 12:58:59;;;;;;;11.25;5.32;;;;;;;;;;143728;647;46051;-59
2021/07/05 13:01:44;;;;;;;10.57;4.80;;;;;;;;;;143726;590;46021;-59
2021/07/05 13:04:20;;;;;;;6.97;4.45;;;;;;;;;;143727;591;46010;-59
2021/07/05 13:07:00;;;;;;;5.97;4.22;;;;;;;;;;143731;569;46013;-59
2021/07/05 13:09:29;;;;;;;6.47;4.50;;;;;;;;;;143727;736;47020;-59
2021/07/05 13:11:58;;;;;;;6.97;4.70;;;;;;;;;;143726;602;46020;-60
2021/07/05 13:14:28;;;;;;;5.93;4.60;;;;;;;;;;143727;641;46010;-59
2021/07/05 13:17:19;;;;;;;5.37;4.47;;;;;;;;;;143730;644;46013;-59
2021/07/05 13:19:48;;;;;;;7.50;4.57;;;;;;;;;;143728;657;46031;-60
2021/07/05 13:22:21;;;;;;;6.57;4.45;;;;;;;;;;143726;601;46021;-59
2021/07/05 13:24:52;;;;;;;8.85;4.87;;;;;;;;;;143727;612;46010;-60
2021/07/05 13:27:32;;;;;;;7.25;4.40;;;;;;;;;;143731;585;46020;-59
2021/07/05 13:30:00;;;;;;;6.65;4.65;;;;;;;;;;143727;569;47022;-60
2021/07/05 13:32:29;;;;;;;7.20;4.87;;;;;;;;;;143726;569;46020;-59
2021/07/05 13:35:11;;;;;;;7.72;5.05;;;;;;;;;;143725;569;46020;-59
2021/07/05 13:37:41;;;;;;;9.38;4.82;;;;;;;;;;143729;569;46013;-59
2021/07/05 13:40:11;;;;;;;12.68;4.85;;;;;;;;;;143727;630;46023;-61
2021/07/05 13:42:40;;;;;;;8.48;4.72;;;;;;;;;;143725;613;46919;-61
2021/07/05 13:45:25;;;;;;;7.75;4.70;;;;;;;;;;143727;589;46010;-61
2021/07/05 13:47:57;;;;;;;5.05;4.18;;;;;;;;;;143730;644;46012;-61
2021/07/05 13:50:47;;;;;;;4.80;4.20;;;;;;;;;;143728;604;46022;-61
2021/07/05 13:53:39;;;;;;;6.72;4.53;;;;;;;;;;143726;590;46021;-61
2021/07/05 13:56:21;;;;;;;7.37;4.40;;;;;;;;;;143725;640;46010;-61
2021/07/05 13:58:54;;;;;;;5.53;4.10;;;;;;;;;;143730;732;46013;-61
2021/07/05 14:01:24;;;;;;;5.60;4.22;;;;;;;;;;143728;650;46023;-61
2021/07/05 14:03:51;;;;;;;6.82;4.62;;;;;;;;;;143726;605;46020;-61
2021/07/05 14:06:19;;;;;;;6.05;4.30;;;;;;;;;;143727;564;46010;-61
2021/07/05 14:08:50;;;;;;;11.48;4.47;;;;;;;;;;143730;625;46012;-62
2021/07/05 14:11:18;;;;;;;7.10;4.70;;;;;;;;;;143726;621;47022;-61
2021/07/05 14:13:49;;;;;;;7.50;4.35;;;;;;;;;;143725;578;46021;-61
2021/07/05 14:16:17;;;;;;;5.82;4.55;;;;;;;;;;143736;564;46021;-61
2021/07/05 14:18:45;;;;;;;5.75;4.47;;;;;;;;;;143745;577;46020;-62
2021/07/05 14:21:17;;;;;;;9.52;5.12;;;;;;;;;;143744;622;46022;-62
2021/07/05 14:23:47;;;;;;;8.43;4.80;;;;;;;;;;143741;576;46020;-62
2021/07/05 14:26:14;;;;;;;5.87;4.78;;;;;;;;;;143744;620;46010;-61
2021/07/05 14:28:41;;;;;;;4.80;4.30;;;;;;;;;;143745;610;46020;-62
2021/07/05 14:31:08;;;;;;;8.05;5.05;;;;;;;;;;143743;640;46023;-62
2021/07/05 14:33:35;;;;;;;7.70;4.68;;;;;;;;;;143741;630;46020;-61
2021/07/05 14:36:03;;;;;;;6.50;4.53;;;;;;;;;;143741;622;46011;-62
2021/07/05 14:38:31;;;;;;;8.88;4.97;;;;;;;;;;143748;633;45021;-62
2021/07/05 14:40:59;;;;;;;6.47;4.25;;;;;;;;;;143742;640;46022;-62
2021/07/05 14:43:26;;;;;;;7.00;5.07;;;;;;;;;;143740;589;46020;-63
2021/07/05 14:45:53;;;;;;;6.95;4.78;;;;;;;;;;143745;593;45911;-62
2021/07/05 14:48:21;;;;;;;6.75;5.05;;;;;;;;;;143747;605;45020;-62
2021/07/05 14:50:48;;;;;;;11.45;5.20;;;;;;;;;;143744;647;46022;-62
2021/07/05 14:53:16;;;;;;;5.30;4.80;;;;;;;;;;143740;593;46917;-62
2021/07/05 14:55:43;;;;;;;7.45;4.80;;;;;;;;;;143743;566;46010;-62
2021/07/05 14:58:10;;;;;;;6.85;4.72;;;;;;;;;;143747;608;45020;-62